sensor_id;sensor_type;location;lat;lon;timestamp;P1;durP1;ratioP1;P2;durP2;ratioP2
44137;SDS011;29800;55.942;37.314;2022-12-07T00:01:07;5.05;;;2.42;;
44137;SDS011;29800;55.942;37.314;2022-12-07T00:03:36;4.90;;;1.90;;
44137;SDS011;29800;55.942;37.314;2022-12-07T00:06:04;5.35;;;1.70;;
44137;SDS011;29800;55.942;37.314;2022-12-07T00:08:34;4.47;;;1.85;;
44137;SDS011;29800;55.942;37.314;2022-12-07T00:11:05;8.35;;;1.85;;
44137;SDS011;29800;55.942;37.314;2022-12-07T00:13:33;4.10;;;1.90;;
44137;SDS011;29800;55.942;37.314;2022-12-07T00:16:03;4.60;;;1.92;;
44137;SDS011;29800;55.942;37.314;2022-12-07T00:18:31;10.40;;;3.10;;
44137;SDS011;29800;55.942;37.314;2022-12-07T00:21:04;4.35;;;1.92;;
44137;SDS011;29800;55.942;37.314;2022-12-07T00:23:42;5.57;;;2.00;;
44137;SDS011;29800;55.942;37.314;2022-12-07T00:26:14;4.97;;;1.90;;
44137;SDS011;29800;55.942;37.314;2022-12-07T00:28:44;5.25;;;1.98;;
44137;SDS011;29800;55.942;37.314;2022-12-07T00:31:15;4.57;;;2.08;;
44137;SDS011;29800;55.942;37.314;2022-12-07T00:33:42;4.03;;;1.92;;
44137;SDS011;29800;55.942;37.314;2022-12-07T00:36:09;5.45;;;2.03;;
44137;SDS011;29800;55.942;37.314;2022-12-07T00:38:38;4.60;;;2.03;;
44137;SDS011;29800;55.942;37.314;2022-12-07T00:41:11;4.45;;;1.85;;
44137;SDS011;29800;55.942;37.314;2022-12-07T00:43:40;11.68;;;2.17;;
44137;SDS011;29800;55.942;37.314;2022-12-07T00:46:07;6.50;;;2.75;;
44137;SDS011;29800;55.942;37.314;2022-12-07T00:48:34;5.03;;;2.22;;
44137;SDS011;29800;55.942;37.314;2022-12-07T00:51:00;4.63;;;2.00;;
44137;SDS011;29800;55.942;37.314;2022-12-07T00:53:27;5.00;;;1.85;;
44137;SDS011;29800;55.942;37.314;2022-12-07T00:55:53;8.98;;;2.22;;
44137;SDS011;29800;55.942;37.314;2022-12-07T00:58:21;5.90;;;2.33;;
44137;SDS011;29800;55.942;37.314;2022-12-07T01:00:50;4.45;;;2.20;;
44137;SDS011;29800;55.942;37.314;2022-12-07T01:03:17;4.80;;;2.10;;
44137;SDS011;29800;55.942;37.314;2022-12-07T01:05:50;4.60;;;2.08;;
44137;SDS011;29800;55.942;37.314;2022-12-07T01:08:17;5.55;;;2.22;;
44137;SDS011;29800;55.942;37.314;2022-12-07T01:10:44;5.20;;;2.10;;
44137;SDS011;29800;55.942;37.314;2022-12-07T01:13:10;5.30;;;2.58;;
44137;SDS011;29800;55.942;37.314;2022-12-07T01:15:46;7.20;;;2.78;;
44137;SDS011;29800;55.942;37.314;2022-12-07T01:18:14;7.00;;;2.75;;
44137;SDS011;29800;55.942;37.314;2022-12-07T01:20:40;5.57;;;2.45;;
44137;SDS011;29800;55.942;37.314;2022-12-07T01:23:06;6.07;;;2.28;;
44137;SDS011;29800;55.942;37.314;2022-12-07T01:25:35;6.25;;;2.83;;
44137;SDS011;29800;55.942;37.314;2022-12-07T01:28:01;5.35;;;2.30;;
44137;SDS011;29800;55.942;37.314;2022-12-07T01:30:27;7.90;;;2.70;;
44137;SDS011;29800;55.942;37.314;2022-12-07T01:32:54;4.72;;;2.50;;
44137;SDS011;29800;55.942;37.314;2022-12-07T01:35:20;6.53;;;2.60;;
44137;SDS011;29800;55.942;37.314;2022-12-07T01:37:50;6.38;;;2.47;;
44137;SDS011;29800;55.942;37.314;2022-12-07T01:40:17;5.60;;;2.30;;
44137;SDS011;29800;55.942;37.314;2022-12-07T01:42:43;6.75;;;2.58;;
44137;SDS011;29800;55.942;37.314;2022-12-07T01:48:05;5.22;;;2.45;;
44137;SDS011;29800;55.942;37.314;2022-12-07T01:50:34;5.30;;;2.22;;
44137;SDS011;29800;55.942;37.314;2022-12-07T01:53:02;5.88;;;2.78;;
44137;SDS011;29800;55.942;37.314;2022-12-07T01:55:32;6.15;;;2.42;;
44137;SDS011;29800;55.942;37.314;2022-12-07T01:57:59;6.80;;;2.85;;
44137;SDS011;29800;55.942;37.314;2022-12-07T02:00:25;10.43;;;2.60;;
44137;SDS011;29800;55.942;37.314;2022-12-07T02:05:30;6.55;;;2.53;;
44137;SDS011;29800;55.942;37.314;2022-12-07T02:07:59;6.43;;;2.85;;
44137;SDS011;29800;55.942;37.314;2022-12-07T02:10:30;7.57;;;2.75;;
44137;SDS011;29800;55.942;37.314;2022-12-07T02:18:17;7.23;;;2.73;;
44137;SDS011;29800;55.942;37.314;2022-12-07T02:20:59;9.25;;;2.40;;
44137;SDS011;29800;55.942;37.314;2022-12-07T02:26:55;10.02;;;3.05;;
44137;SDS011;29800;55.942;37.314;2022-12-07T02:32:57;5.97;;;2.47;;
44137;SDS011;29800;55.942;37.314;2022-12-07T02:35:44;7.15;;;2.58;;
44137;SDS011;29800;55.942;37.314;2022-12-07T02:43:39;8.32;;;2.88;;
44137;SDS011;29800;55.942;37.314;2022-12-07T02:46:13;8.02;;;2.97;;
44137;SDS011;29800;55.942;37.314;2022-12-07T02:48:43;11.50;;;3.13;;
44137;SDS011;29800;55.942;37.314;2022-12-07T02:51:10;9.68;;;2.90;;
44137;SDS011;29800;55.942;37.314;2022-12-07T02:53:41;6.55;;;2.72;;
44137;SDS011;29800;55.942;37.314;2022-12-07T03:02:03;7.30;;;3.00;;
44137;SDS011;29800;55.942;37.314;2022-12-07T03:07:30;7.60;;;2.72;;
44137;SDS011;29800;55.942;37.314;2022-12-07T03:13:24;8.23;;;2.85;;
44137;SDS011;29800;55.942;37.314;2022-12-07T03:18:05;11.35;;;3.35;;
44137;SDS011;29800;55.942;37.314;2022-12-07T03:20:33;11.75;;;3.45;;
44137;SDS011;29800;55.942;37.314;2022-12-07T03:23:01;9.68;;;3.15;;
44137;SDS011;29800;55.942;37.314;2022-12-07T03:25:38;7.03;;;3.28;;
44137;SDS011;29800;55.942;37.314;2022-12-07T03:28:07;7.15;;;2.83;;
44137;SDS011;29800;55.942;37.314;2022-12-07T03:30:45;7.03;;;3.50;;
44137;SDS011;29800;55.942;37.314;2022-12-07T03:33:26;4.82;;;2.63;;
44137;SDS011;29800;55.942;37.314;2022-12-07T03:38:42;7.20;;;2.75;;
44137;SDS011;29800;55.942;37.314;2022-12-07T03:41:23;8.77;;;3.10;;
44137;SDS011;29800;55.942;37.314;2022-12-07T03:43:53;8.02;;;2.70;;
44137;SDS011;29800;55.942;37.314;2022-12-07T03:46:43;13.55;;;3.13;;
44137;SDS011;29800;55.942;37.314;2022-12-07T03:49:18;5.45;;;2.83;;
44137;SDS011;29800;55.942;37.314;2022-12-07T03:52:02;11.68;;;3.15;;
44137;SDS011;29800;55.942;37.314;2022-12-07T03:58:06;8.68;;;3.35;;
44137;SDS011;29800;55.942;37.314;2022-12-07T04:00:36;9.70;;;3.10;;
44137;SDS011;29800;55.942;37.314;2022-12-07T04:03:03;9.18;;;2.88;;
44137;SDS011;29800;55.942;37.314;2022-12-07T04:05:29;8.73;;;2.72;;
44137;SDS011;29800;55.942;37.314;2022-12-07T04:07:55;7.20;;;2.90;;
44137;SDS011;29800;55.942;37.314;2022-12-07T04:10:21;6.70;;;2.78;;
44137;SDS011;29800;55.942;37.314;2022-12-07T04:12:48;6.65;;;3.00;;
44137;SDS011;29800;55.942;37.314;2022-12-07T04:15:14;6.35;;;2.72;;
44137;SDS011;29800;55.942;37.314;2022-12-07T04:17:40;9.52;;;2.85;;
44137;SDS011;29800;55.942;37.314;2022-12-07T04:20:06;9.98;;;2.90;;
44137;SDS011;29800;55.942;37.314;2022-12-07T04:22:33;6.47;;;2.45;;
44137;SDS011;29800;55.942;37.314;2022-12-07T04:24:59;8.05;;;2.92;;
44137;SDS011;29800;55.942;37.314;2022-12-07T04:27:26;5.50;;;2.65;;
44137;SDS011;29800;55.942;37.314;2022-12-07T04:29:52;11.63;;;3.17;;
44137;SDS011;29800;55.942;37.314;2022-12-07T04:32:18;6.85;;;2.88;;
44137;SDS011;29800;55.942;37.314;2022-12-07T04:34:44;7.22;;;3.15;;
44137;SDS011;29800;55.942;37.314;2022-12-07T04:37:13;7.30;;;3.25;;
44137;SDS011;29800;55.942;37.314;2022-12-07T04:39:40;5.38;;;2.70;;
44137;SDS011;29800;55.942;37.314;2022-12-07T04:42:06;6.95;;;2.78;;
44137;SDS011;29800;55.942;37.314;2022-12-07T04:44:32;6.13;;;2.60;;
44137;SDS011;29800;55.942;37.314;2022-12-07T04:46:58;6.93;;;3.13;;
44137;SDS011;29800;55.942;37.314;2022-12-07T04:49:24;7.95;;;3.70;;
44137;SDS011;29800;55.942;37.314;2022-12-07T04:51:51;8.52;;;2.00;;
44137;SDS011;29800;55.942;37.314;2022-12-07T04:54:17;11.10;;;3.45;;
44137;SDS011;29800;55.942;37.314;2022-12-07T04:56:44;9.60;;;3.08;;
44137;SDS011;29800;55.942;37.314;2022-12-07T04:59:10;11.73;;;3.28;;
44137;SDS011;29800;55.942;37.314;2022-12-07T05:01:38;9.95;;;3.10;;
44137;SDS011;29800;55.942;37.314;2022-12-07T05:04:04;6.63;;;3.08;;
44137;SDS011;29800;55.942;37.314;2022-12-07T05:06:30;9.73;;;2.83;;
44137;SDS011;29800;55.942;37.314;2022-12-07T05:08:57;9.07;;;2.50;;
44137;SDS011;29800;55.942;37.314;2022-12-07T05:11:23;11.10;;;3.85;;
44137;SDS011;29800;55.942;37.314;2022-12-07T05:14:08;6.75;;;2.95;;
44137;SDS011;29800;55.942;37.314;2022-12-07T05:16:38;5.80;;;3.00;;
44137;SDS011;29800;55.942;37.314;2022-12-07T05:19:05;10.65;;;2.58;;
44137;SDS011;29800;55.942;37.314;2022-12-07T05:21:31;8.15;;;2.95;;
44137;SDS011;29800;55.942;37.314;2022-12-07T05:23:57;6.90;;;3.00;;
44137;SDS011;29800;55.942;37.314;2022-12-07T05:26:24;8.43;;;3.03;;
44137;SDS011;29800;55.942;37.314;2022-12-07T05:28:51;8.57;;;3.00;;
44137;SDS011;29800;55.942;37.314;2022-12-07T05:31:18;5.70;;;2.97;;
44137;SDS011;29800;55.942;37.314;2022-12-07T05:33:45;6.35;;;3.03;;
44137;SDS011;29800;55.942;37.314;2022-12-07T05:36:11;10.13;;;3.40;;
44137;SDS011;29800;55.942;37.314;2022-12-07T05:38:38;7.00;;;3.15;;
44137;SDS011;29800;55.942;37.314;2022-12-07T05:41:05;10.65;;;3.65;;
44137;SDS011;29800;55.942;37.314;2022-12-07T05:43:32;10.18;;;3.33;;
44137;SDS011;29800;55.942;37.314;2022-12-07T05:45:59;8.07;;;3.88;;
44137;SDS011;29800;55.942;37.314;2022-12-07T05:48:25;11.35;;;3.38;;
44137;SDS011;29800;55.942;37.314;2022-12-07T05:50:52;9.85;;;3.38;;
44137;SDS011;29800;55.942;37.314;2022-12-07T05:53:18;9.70;;;3.55;;
44137;SDS011;29800;55.942;37.314;2022-12-07T05:55:44;7.97;;;3.72;;
44137;SDS011;29800;55.942;37.314;2022-12-07T05:58:10;10.95;;;3.97;;
44137;SDS011;29800;55.942;37.314;2022-12-07T06:00:55;9.15;;;3.70;;
44137;SDS011;29800;55.942;37.314;2022-12-07T06:03:22;10.57;;;3.58;;
44137;SDS011;29800;55.942;37.314;2022-12-07T06:05:48;7.50;;;3.00;;
44137;SDS011;29800;55.942;37.314;2022-12-07T06:08:14;7.07;;;3.40;;
44137;SDS011;29800;55.942;37.314;2022-12-07T06:10:41;6.05;;;2.72;;
44137;SDS011;29800;55.942;37.314;2022-12-07T06:13:08;8.40;;;2.80;;
44137;SDS011;29800;55.942;37.314;2022-12-07T06:15:37;10.43;;;3.17;;
44137;SDS011;29800;55.942;37.314;2022-12-07T06:18:03;12.25;;;2.83;;
44137;SDS011;29800;55.942;37.314;2022-12-07T06:20:30;8.23;;;3.28;;
44137;SDS011;29800;55.942;37.314;2022-12-07T06:22:56;7.88;;;2.80;;
44137;SDS011;29800;55.942;37.314;2022-12-07T06:25:23;8.38;;;3.28;;
44137;SDS011;29800;55.942;37.314;2022-12-07T06:27:49;8.75;;;2.85;;
44137;SDS011;29800;55.942;37.314;2022-12-07T06:30:15;6.38;;;3.08;;
44137;SDS011;29800;55.942;37.314;2022-12-07T06:32:42;8.65;;;3.22;;
44137;SDS011;29800;55.942;37.314;2022-12-07T06:35:08;5.82;;;2.53;;
44137;SDS011;29800;55.942;37.314;2022-12-07T06:37:34;9.52;;;2.95;;
44137;SDS011;29800;55.942;37.314;2022-12-07T06:40:00;7.78;;;3.17;;
44137;SDS011;29800;55.942;37.314;2022-12-07T06:42:26;9.98;;;2.95;;
44137;SDS011;29800;55.942;37.314;2022-12-07T06:44:52;8.73;;;3.22;;
44137;SDS011;29800;55.942;37.314;2022-12-07T06:47:18;9.77;;;3.45;;
44137;SDS011;29800;55.942;37.314;2022-12-07T06:49:44;7.03;;;3.05;;
44137;SDS011;29800;55.942;37.314;2022-12-07T06:52:12;11.88;;;3.72;;
44137;SDS011;29800;55.942;37.314;2022-12-07T06:54:39;9.20;;;3.30;;
44137;SDS011;29800;55.942;37.314;2022-12-07T06:57:05;9.63;;;3.10;;
44137;SDS011;29800;55.942;37.314;2022-12-07T06:59:31;9.23;;;3.17;;
44137;SDS011;29800;55.942;37.314;2022-12-07T07:01:57;8.45;;;3.33;;
44137;SDS011;29800;55.942;37.314;2022-12-07T07:04:23;7.82;;;3.55;;
44137;SDS011;29800;55.942;37.314;2022-12-07T07:06:50;7.03;;;3.15;;
44137;SDS011;29800;55.942;37.314;2022-12-07T07:09:16;12.82;;;3.75;;
44137;SDS011;29800;55.942;37.314;2022-12-07T07:11:42;8.80;;;3.97;;
44137;SDS011;29800;55.942;37.314;2022-12-07T07:14:08;9.02;;;3.72;;
44137;SDS011;29800;55.942;37.314;2022-12-07T07:16:34;9.10;;;3.30;;
44137;SDS011;29800;55.942;37.314;2022-12-07T07:19:00;9.82;;;3.60;;
44137;SDS011;29800;55.942;37.314;2022-12-07T07:21:26;6.90;;;3.47;;
44137;SDS011;29800;55.942;37.314;2022-12-07T07:23:53;8.07;;;2.97;;
44137;SDS011;29800;55.942;37.314;2022-12-07T07:26:19;12.70;;;3.75;;
44137;SDS011;29800;55.942;37.314;2022-12-07T07:28:45;8.93;;;3.83;;
44137;SDS011;29800;55.942;37.314;2022-12-07T07:31:11;7.45;;;3.10;;
44137;SDS011;29800;55.942;37.314;2022-12-07T07:33:37;7.05;;;3.28;;
44137;SDS011;29800;55.942;37.314;2022-12-07T07:36:03;8.77;;;3.42;;
44137;SDS011;29800;55.942;37.314;2022-12-07T07:38:29;10.95;;;3.50;;
44137;SDS011;29800;55.942;37.314;2022-12-07T07:40:56;9.73;;;3.92;;
44137;SDS011;29800;55.942;37.314;2022-12-07T07:43:22;9.30;;;3.45;;
44137;SDS011;29800;55.942;37.314;2022-12-07T07:45:48;6.00;;;3.22;;
44137;SDS011;29800;55.942;37.314;2022-12-07T07:48:14;12.77;;;4.05;;
44137;SDS011;29800;55.942;37.314;2022-12-07T07:50:40;9.85;;;3.72;;
44137;SDS011;29800;55.942;37.314;2022-12-07T07:53:06;14.52;;;3.78;;
44137;SDS011;29800;55.942;37.314;2022-12-07T07:55:32;10.00;;;3.80;;
44137;SDS011;29800;55.942;37.314;2022-12-07T07:57:58;15.90;;;3.80;;
44137;SDS011;29800;55.942;37.314;2022-12-07T08:00:25;12.32;;;3.60;;
44137;SDS011;29800;55.942;37.314;2022-12-07T08:02:51;9.27;;;3.78;;
44137;SDS011;29800;55.942;37.314;2022-12-07T08:05:17;9.90;;;4.10;;
44137;SDS011;29800;55.942;37.314;2022-12-07T08:07:55;12.95;;;4.40;;
44137;SDS011;29800;55.942;37.314;2022-12-07T08:10:34;7.75;;;4.15;;
44137;SDS011;29800;55.942;37.314;2022-12-07T08:13:10;10.25;;;3.85;;
44137;SDS011;29800;55.942;37.314;2022-12-07T08:15:37;12.50;;;4.03;;
44137;SDS011;29800;55.942;37.314;2022-12-07T08:18:04;10.30;;;4.05;;
44137;SDS011;29800;55.942;37.314;2022-12-07T08:20:31;10.82;;;4.10;;
44137;SDS011;29800;55.942;37.314;2022-12-07T08:23:01;8.80;;;3.72;;
44137;SDS011;29800;55.942;37.314;2022-12-07T08:25:28;9.52;;;4.05;;
44137;SDS011;29800;55.942;37.314;2022-12-07T08:27:56;9.27;;;4.13;;
44137;SDS011;29800;55.942;37.314;2022-12-07T08:30:23;14.30;;;4.00;;
44137;SDS011;29800;55.942;37.314;2022-12-07T08:32:49;7.38;;;3.50;;
44137;SDS011;29800;55.942;37.314;2022-12-07T08:35:15;9.75;;;4.10;;
44137;SDS011;29800;55.942;37.314;2022-12-07T08:37:42;8.43;;;4.20;;
44137;SDS011;29800;55.942;37.314;2022-12-07T08:40:08;12.77;;;4.53;;
44137;SDS011;29800;55.942;37.314;2022-12-07T08:42:38;12.07;;;3.92;;
44137;SDS011;29800;55.942;37.314;2022-12-07T08:45:10;7.32;;;4.10;;
44137;SDS011;29800;55.942;37.314;2022-12-07T08:47:39;7.47;;;3.92;;
44137;SDS011;29800;55.942;37.314;2022-12-07T08:50:26;9.25;;;3.80;;
44137;SDS011;29800;55.942;37.314;2022-12-07T08:52:53;9.45;;;4.45;;
44137;SDS011;29800;55.942;37.314;2022-12-07T08:55:22;9.27;;;4.10;;
44137;SDS011;29800;55.942;37.314;2022-12-07T08:57:49;7.38;;;4.25;;
44137;SDS011;29800;55.942;37.314;2022-12-07T09:00:16;9.63;;;4.32;;
44137;SDS011;29800;55.942;37.314;2022-12-07T09:02:43;9.68;;;4.50;;
44137;SDS011;29800;55.942;37.314;2022-12-07T09:05:10;10.55;;;4.20;;
44137;SDS011;29800;55.942;37.314;2022-12-07T09:07:36;11.82;;;5.00;;
44137;SDS011;29800;55.942;37.314;2022-12-07T09:10:04;11.65;;;4.43;;
44137;SDS011;29800;55.942;37.314;2022-12-07T09:12:31;8.45;;;4.50;;
44137;SDS011;29800;55.942;37.314;2022-12-07T09:14:57;17.92;;;4.75;;
44137;SDS011;29800;55.942;37.314;2022-12-07T09:17:23;10.02;;;5.07;;
44137;SDS011;29800;55.942;37.314;2022-12-07T09:19:49;11.93;;;4.88;;
44137;SDS011;29800;55.942;37.314;2022-12-07T09:22:18;13.68;;;5.90;;
44137;SDS011;29800;55.942;37.314;2022-12-07T09:24:44;11.50;;;5.10;;
44137;SDS011;29800;55.942;37.314;2022-12-07T09:27:11;11.70;;;4.38;;
44137;SDS011;29800;55.942;37.314;2022-12-07T09:29:38;9.95;;;4.40;;
44137;SDS011;29800;55.942;37.314;2022-12-07T09:32:04;11.93;;;4.50;;
44137;SDS011;29800;55.942;37.314;2022-12-07T09:34:31;10.57;;;4.30;;
44137;SDS011;29800;55.942;37.314;2022-12-07T09:36:57;11.02;;;4.80;;
44137;SDS011;29800;55.942;37.314;2022-12-07T09:39:23;9.73;;;5.00;;
44137;SDS011;29800;55.942;37.314;2022-12-07T09:41:50;10.80;;;4.88;;
44137;SDS011;29800;55.942;37.314;2022-12-07T09:44:23;14.18;;;4.90;;
44137;SDS011;29800;55.942;37.314;2022-12-07T09:46:51;12.10;;;4.72;;
44137;SDS011;29800;55.942;37.314;2022-12-07T09:49:22;10.88;;;4.78;;
44137;SDS011;29800;55.942;37.314;2022-12-07T09:52:16;12.80;;;4.93;;
44137;SDS011;29800;55.942;37.314;2022-12-07T09:54:51;10.57;;;4.55;;
44137;SDS011;29800;55.942;37.314;2022-12-07T09:57:17;13.23;;;4.45;;
44137;SDS011;29800;55.942;37.314;2022-12-07T09:59:47;9.75;;;4.72;;
44137;SDS011;29800;55.942;37.314;2022-12-07T10:02:21;9.82;;;4.32;;
44137;SDS011;29800;55.942;37.314;2022-12-07T10:04:51;13.38;;;4.97;;
44137;SDS011;29800;55.942;37.314;2022-12-07T10:07:21;10.25;;;4.35;;
44137;SDS011;29800;55.942;37.314;2022-12-07T10:09:47;8.63;;;4.15;;
44137;SDS011;29800;55.942;37.314;2022-12-07T10:12:14;11.65;;;4.40;;
44137;SDS011;29800;55.942;37.314;2022-12-07T10:14:52;9.57;;;4.07;;
44137;SDS011;29800;55.942;37.314;2022-12-07T10:20:19;12.35;;;4.05;;
44137;SDS011;29800;55.942;37.314;2022-12-07T10:22:55;14.32;;;4.60;;
44137;SDS011;29800;55.942;37.314;2022-12-07T10:25:30;15.93;;;4.78;;
44137;SDS011;29800;55.942;37.314;2022-12-07T10:30:46;9.65;;;3.95;;
44137;SDS011;29800;55.942;37.314;2022-12-07T10:36:24;11.57;;;4.03;;
44137;SDS011;29800;55.942;37.314;2022-12-07T10:41:57;9.75;;;4.25;;
44137;SDS011;29800;55.942;37.314;2022-12-07T10:44:29;10.60;;;3.95;;
44137;SDS011;29800;55.942;37.314;2022-12-07T11:00:21;9.63;;;3.58;;
44137;SDS011;29800;55.942;37.314;2022-12-07T11:08:53;8.05;;;3.90;;
44137;SDS011;29800;55.942;37.314;2022-12-07T11:16:48;9.68;;;3.92;;
44137;SDS011;29800;55.942;37.314;2022-12-07T11:21:56;12.88;;;4.15;;
44137;SDS011;29800;55.942;37.314;2022-12-07T11:24:31;9.48;;;4.15;;
44137;SDS011;29800;55.942;37.314;2022-12-07T11:35:35;8.27;;;4.75;;
44137;SDS011;29800;55.942;37.314;2022-12-07T11:38:16;13.43;;;4.43;;
44137;SDS011;29800;55.942;37.314;2022-12-07T11:40:47;11.38;;;4.22;;
44137;SDS011;29800;55.942;37.314;2022-12-07T11:51:16;12.35;;;4.70;;
44137;SDS011;29800;55.942;37.314;2022-12-07T11:56:21;11.13;;;4.93;;
44137;SDS011;29800;55.942;37.314;2022-12-07T12:01:32;9.82;;;4.30;;
44137;SDS011;29800;55.942;37.314;2022-12-07T12:06:37;12.23;;;4.75;;
44137;SDS011;29800;55.942;37.314;2022-12-07T12:11:52;14.18;;;5.68;;
44137;SDS011;29800;55.942;37.314;2022-12-07T12:20:21;11.23;;;4.70;;
44137;SDS011;29800;55.942;37.314;2022-12-07T12:22:41;13.98;;;4.88;;
44137;SDS011;29800;55.942;37.314;2022-12-07T12:25:45;15.85;;;5.28;;
44137;SDS011;29800;55.942;37.314;2022-12-07T12:28:20;14.90;;;5.05;;
44137;SDS011;29800;55.942;37.314;2022-12-07T12:31:15;14.32;;;5.13;;
44137;SDS011;29800;55.942;37.314;2022-12-07T12:33:45;16.40;;;5.28;;
44137;SDS011;29800;55.942;37.314;2022-12-07T12:47:10;12.18;;;5.43;;
44137;SDS011;29800;55.942;37.314;2022-12-07T12:50:20;12.60;;;5.30;;
44137;SDS011;29800;55.942;37.314;2022-12-07T12:55:17;14.40;;;5.65;;
44137;SDS011;29800;55.942;37.314;2022-12-07T12:57:47;13.93;;;5.05;;
44137;SDS011;29800;55.942;37.314;2022-12-07T13:00:33;15.05;;;7.03;;
44137;SDS011;29800;55.942;37.314;2022-12-07T13:02:59;21.33;;;6.32;;
44137;SDS011;29800;55.942;37.314;2022-12-07T13:05:29;13.63;;;6.40;;
44137;SDS011;29800;55.942;37.314;2022-12-07T13:10:38;14.57;;;6.35;;
44137;SDS011;29800;55.942;37.314;2022-12-07T13:15:48;15.10;;;5.70;;
44137;SDS011;29800;55.942;37.314;2022-12-07T13:18:27;13.43;;;5.45;;
44137;SDS011;29800;55.942;37.314;2022-12-07T13:23:36;11.85;;;5.45;;
44137;SDS011;29800;55.942;37.314;2022-12-07T13:26:06;11.32;;;5.80;;
44137;SDS011;29800;55.942;37.314;2022-12-07T13:28:50;11.70;;;6.05;;
44137;SDS011;29800;55.942;37.314;2022-12-07T13:33:57;11.13;;;5.72;;
44137;SDS011;29800;55.942;37.314;2022-12-07T13:36:24;9.80;;;4.75;;
44137;SDS011;29800;55.942;37.314;2022-12-07T13:38:59;11.75;;;5.90;;
44137;SDS011;29800;55.942;37.314;2022-12-07T13:41:36;12.48;;;6.15;;
44137;SDS011;29800;55.942;37.314;2022-12-07T13:44:03;12.27;;;5.85;;
44137;SDS011;29800;55.942;37.314;2022-12-07T13:49:49;12.20;;;5.85;;
44137;SDS011;29800;55.942;37.314;2022-12-07T13:52:18;17.38;;;6.68;;
44137;SDS011;29800;55.942;37.314;2022-12-07T13:54:58;14.65;;;5.25;;
44137;SDS011;29800;55.942;37.314;2022-12-07T13:57:29;16.85;;;5.97;;
44137;SDS011;29800;55.942;37.314;2022-12-07T13:59:59;14.82;;;5.45;;
44137;SDS011;29800;55.942;37.314;2022-12-07T14:05:13;20.10;;;6.45;;
44137;SDS011;29800;55.942;37.314;2022-12-07T14:16:24;14.75;;;5.85;;
44137;SDS011;29800;55.942;37.314;2022-12-07T14:18:59;15.77;;;5.80;;
44137;SDS011;29800;55.942;37.314;2022-12-07T14:21:32;11.00;;;4.18;;
44137;SDS011;29800;55.942;37.314;2022-12-07T14:24:10;15.57;;;5.60;;
44137;SDS011;29800;55.942;37.314;2022-12-07T14:26:47;15.02;;;5.82;;
44137;SDS011;29800;55.942;37.314;2022-12-07T14:31:56;57.03;;;18.92;;
44137;SDS011;29800;55.942;37.314;2022-12-07T14:34:24;17.20;;;6.95;;
44137;SDS011;29800;55.942;37.314;2022-12-07T14:36:51;22.80;;;9.02;;
44137;SDS011;29800;55.942;37.314;2022-12-07T14:39:17;11.88;;;5.43;;
44137;SDS011;29800;55.942;37.314;2022-12-07T14:41:43;22.60;;;9.43;;
44137;SDS011;29800;55.942;37.314;2022-12-07T14:44:19;17.15;;;7.20;;
44137;SDS011;29800;55.942;37.314;2022-12-07T14:46:49;17.42;;;7.90;;
44137;SDS011;29800;55.942;37.314;2022-12-07T14:49:16;15.65;;;6.95;;
44137;SDS011;29800;55.942;37.314;2022-12-07T14:51:44;10.20;;;4.80;;
44137;SDS011;29800;55.942;37.314;2022-12-07T14:54:14;14.30;;;5.88;;
44137;SDS011;29800;55.942;37.314;2022-12-07T14:56:46;14.25;;;5.97;;
44137;SDS011;29800;55.942;37.314;2022-12-07T14:59:16;13.70;;;5.88;;
44137;SDS011;29800;55.942;37.314;2022-12-07T15:01:42;13.05;;;5.82;;
44137;SDS011;29800;55.942;37.314;2022-12-07T15:04:09;12.88;;;5.78;;
44137;SDS011;29800;55.942;37.314;2022-12-07T15:06:35;16.27;;;5.47;;
44137;SDS011;29800;55.942;37.314;2022-12-07T15:09:01;19.02;;;7.18;;
44137;SDS011;29800;55.942;37.314;2022-12-07T15:11:28;15.60;;;7.00;;
44137;SDS011;29800;55.942;37.314;2022-12-07T15:13:54;13.55;;;6.40;;
44137;SDS011;29800;55.942;37.314;2022-12-07T15:16:37;24.77;;;9.32;;
44137;SDS011;29800;55.942;37.314;2022-12-07T15:19:06;15.00;;;5.85;;
44137;SDS011;29800;55.942;37.314;2022-12-07T15:21:43;25.15;;;8.55;;
44137;SDS011;29800;55.942;37.314;2022-12-07T15:24:10;11.82;;;6.13;;
44137;SDS011;29800;55.942;37.314;2022-12-07T15:26:37;26.73;;;12.65;;
44137;SDS011;29800;55.942;37.314;2022-12-07T15:29:04;30.17;;;15.98;;
44137;SDS011;29800;55.942;37.314;2022-12-07T15:31:32;12.82;;;6.22;;
44137;SDS011;29800;55.942;37.314;2022-12-07T15:33:58;16.40;;;6.38;;
44137;SDS011;29800;55.942;37.314;2022-12-07T15:36:26;14.23;;;5.65;;
44137;SDS011;29800;55.942;37.314;2022-12-07T15:38:53;13.70;;;5.78;;
44137;SDS011;29800;55.942;37.314;2022-12-07T15:41:20;11.70;;;5.47;;
44137;SDS011;29800;55.942;37.314;2022-12-07T15:43:47;13.80;;;5.30;;
44137;SDS011;29800;55.942;37.314;2022-12-07T15:46:36;10.88;;;4.95;;
44137;SDS011;29800;55.942;37.314;2022-12-07T15:49:07;16.38;;;7.95;;
44137;SDS011;29800;55.942;37.314;2022-12-07T15:51:39;21.38;;;10.65;;
44137;SDS011;29800;55.942;37.314;2022-12-07T15:54:06;12.23;;;6.03;;
44137;SDS011;29800;55.942;37.314;2022-12-07T15:56:32;14.85;;;5.75;;
44137;SDS011;29800;55.942;37.314;2022-12-07T15:58:58;16.30;;;6.20;;
44137;SDS011;29800;55.942;37.314;2022-12-07T16:01:24;12.98;;;6.07;;
44137;SDS011;29800;55.942;37.314;2022-12-07T16:03:50;12.40;;;5.85;;
44137;SDS011;29800;55.942;37.314;2022-12-07T16:06:17;12.80;;;5.72;;
44137;SDS011;29800;55.942;37.314;2022-12-07T16:08:45;13.65;;;5.50;;
44137;SDS011;29800;55.942;37.314;2022-12-07T16:11:14;12.32;;;5.07;;
44137;SDS011;29800;55.942;37.314;2022-12-07T16:13:40;13.55;;;5.78;;
44137;SDS011;29800;55.942;37.314;2022-12-07T16:16:07;12.13;;;5.38;;
44137;SDS011;29800;55.942;37.314;2022-12-07T16:18:38;11.48;;;5.13;;
44137;SDS011;29800;55.942;37.314;2022-12-07T16:21:05;14.88;;;5.72;;
44137;SDS011;29800;55.942;37.314;2022-12-07T16:23:31;14.30;;;5.97;;
44137;SDS011;29800;55.942;37.314;2022-12-07T16:26:04;11.18;;;5.00;;
44137;SDS011;29800;55.942;37.314;2022-12-07T16:28:32;11.02;;;5.55;;
44137;SDS011;29800;55.942;37.314;2022-12-07T16:31:08;18.60;;;5.97;;
44137;SDS011;29800;55.942;37.314;2022-12-07T16:33:36;16.63;;;5.90;;
44137;SDS011;29800;55.942;37.314;2022-12-07T16:36:05;17.70;;;7.88;;
44137;SDS011;29800;55.942;37.314;2022-12-07T16:38:35;14.63;;;4.95;;
44137;SDS011;29800;55.942;37.314;2022-12-07T16:41:02;11.18;;;5.25;;
44137;SDS011;29800;55.942;37.314;2022-12-07T16:43:29;12.18;;;5.30;;
44137;SDS011;29800;55.942;37.314;2022-12-07T16:45:55;17.17;;;6.53;;
44137;SDS011;29800;55.942;37.314;2022-12-07T16:48:22;13.80;;;5.88;;
44137;SDS011;29800;55.942;37.314;2022-12-07T16:50:48;13.85;;;6.70;;
44137;SDS011;29800;55.942;37.314;2022-12-07T16:53:14;14.73;;;6.65;;
44137;SDS011;29800;55.942;37.314;2022-12-07T16:55:42;13.38;;;5.47;;
44137;SDS011;29800;55.942;37.314;2022-12-07T16:58:10;9.60;;;4.43;;
44137;SDS011;29800;55.942;37.314;2022-12-07T17:00:38;10.15;;;5.22;;
44137;SDS011;29800;55.942;37.314;2022-12-07T17:03:05;10.38;;;4.45;;
44137;SDS011;29800;55.942;37.314;2022-12-07T17:05:31;13.65;;;5.47;;
44137;SDS011;29800;55.942;37.314;2022-12-07T17:07:58;10.85;;;5.93;;
44137;SDS011;29800;55.942;37.314;2022-12-07T17:10:24;13.57;;;5.80;;
44137;SDS011;29800;55.942;37.314;2022-12-07T17:12:51;12.40;;;6.13;;
44137;SDS011;29800;55.942;37.314;2022-12-07T17:15:17;14.63;;;6.18;;
44137;SDS011;29800;55.942;37.314;2022-12-07T17:17:44;13.43;;;6.15;;